createdAt,value
2023-02-16T00:01:05.005Z,2.50
2023-02-16T00:03:34.464Z,3.42
2023-02-16T00:06:01.257Z,2.89
2023-02-16T00:08:32.920Z,2.76
2023-02-16T00:11:20.745Z,2.73
2023-02-16T00:13:53.107Z,2.70
2023-02-16T00:16:26.495Z,2.56
2023-02-16T00:18:56.066Z,2.81
2023-02-16T00:21:28.042Z,3.39
2023-02-16T00:24:04.719Z,2.56
2023-02-16T00:26:36.760Z,2.86
2023-02-16T00:29:33.039Z,2.91
2023-02-16T00:32:08.655Z,2.73
2023-02-16T00:34:40.035Z,2.98
2023-02-16T00:37:14.309Z,2.79
2023-02-16T00:39:48.541Z,2.61
2023-02-16T00:42:24.431Z,3.22
2023-02-16T00:44:58.472Z,2.36
2023-02-16T00:47:43.087Z,3.18
2023-02-16T00:50:42.374Z,3.11
2023-02-16T00:53:10.829Z,3.14
2023-02-16T00:55:46.506Z,-2.70
2023-02-16T00:58:31.805Z,3.12
2023-02-16T01:01:19.028Z,-2.07
2023-02-16T01:03:50.262Z,-1.03
2023-02-16T01:06:38.253Z,-1.08
2023-02-16T01:09:52.022Z,-2.45
2023-02-16T01:15:34.294Z,2.90
2023-02-16T01:18:06.482Z,-2.22
2023-02-16T01:20:45.028Z,-2.26
2023-02-16T01:23:32.620Z,-2.07
2023-02-16T01:26:08.281Z,-1.00
2023-02-16T01:28:45.142Z,1.06
2023-02-16T01:31:28.319Z,-2.56
2023-02-16T01:34:16.136Z,-2.53
2023-02-16T01:36:48.242Z,-2.63
2023-02-16T01:39:23.127Z,-2.61
2023-02-16T01:42:47.418Z,-2.54
2023-02-16T01:45:58.176Z,-2.70
2023-02-16T01:52:10.165Z,0.63
2023-02-16T01:55:19.089Z,2.43
2023-02-16T01:58:34.466Z,-2.27
2023-02-16T02:01:01.319Z,2.35
2023-02-16T02:04:04.052Z,-2.29
2023-02-16T02:06:43.495Z,-2.67
2023-02-16T02:09:28.191Z,2.45
2023-02-16T02:12:24.087Z,2.44
2023-02-16T02:14:51.788Z,-1.29
2023-02-16T02:17:24.532Z,-2.56
2023-02-16T02:20:02.147Z,-2.50
2023-02-16T02:23:09.208Z,-2.75
2023-02-16T02:26:05.200Z,2.44
2023-02-16T02:29:12.276Z,2.45
2023-02-16T02:32:02.616Z,2.46
2023-02-16T02:34:35.548Z,2.41
2023-02-16T02:37:33.586Z,2.34
2023-02-16T02:40:11.389Z,2.21
2023-02-16T02:43:03.176Z,2.13
2023-02-16T02:45:34.961Z,1.98
2023-02-16T02:48:02.424Z,1.73
2023-02-16T02:51:07.729Z,1.74
2023-02-16T02:53:39.567Z,1.75
2023-02-16T02:56:28.640Z,1.21
2023-02-16T02:59:17.173Z,1.94
2023-02-16T03:01:49.165Z,1.98
2023-02-16T03:04:21.459Z,1.81
2023-02-16T03:06:54.368Z,1.68
2023-02-16T03:09:23.956Z,1.96
2023-02-16T03:12:12.254Z,2.28
2023-02-16T03:15:04.617Z,1.82
2023-02-16T03:17:56.127Z,1.80
2023-02-16T03:20:41.579Z,2.10
2023-02-16T03:23:31.650Z,1.89
2023-02-16T03:26:19.787Z,1.56
2023-02-16T03:29:06.397Z,1.80
2023-02-16T03:31:36.436Z,1.41
2023-02-16T03:34:03.329Z,1.11
2023-02-16T03:36:32.190Z,1.46
2023-02-16T03:39:02.284Z,1.39
2023-02-16T03:41:33.032Z,1.41
2023-02-16T03:44:00.238Z,1.18
2023-02-16T03:46:27.219Z,0.91
2023-02-16T03:48:53.921Z,1.38
2023-02-16T03:51:22.608Z,1.88
2023-02-16T03:53:57.813Z,1.40
2023-02-16T03:56:32.130Z,1.63
2023-02-16T03:59:03.691Z,1.48
2023-02-16T04:01:33.058Z,0.84
2023-02-16T04:04:02.463Z,0.89
2023-02-16T04:06:32.282Z,1.39
2023-02-16T04:09:02.647Z,1.30
2023-02-16T04:11:48.158Z,1.02
2023-02-16T04:14:18.111Z,1.61
2023-02-16T04:19:51.862Z,-3.16
2023-02-16T04:22:21.547Z,-2.81
2023-02-16T04:24:54.136Z,1.95
2023-02-16T04:27:24.760Z,-3.22
2023-02-16T04:29:53.224Z,-3.15
2023-02-16T04:32:27.085Z,-1.14
2023-02-16T04:34:59.624Z,-1.07
2023-02-16T04:37:26.947Z,-0.85
2023-02-16T04:39:54.166Z,-3.39
2023-02-16T04:42:21.483Z,-2.10
2023-02-16T04:44:48.536Z,-0.18
2023-02-16T04:47:16.195Z,-0.24
2023-02-16T04:49:43.384Z,0.11
2023-02-16T04:52:13.639Z,-1.36
2023-02-16T04:54:45.956Z,-2.63
2023-02-16T04:57:16.447Z,-0.98
2023-02-16T04:59:44.115Z,-3.37
2023-02-16T05:02:14.370Z,-0.67
2023-02-16T05:04:45.236Z,-3.23
2023-02-16T05:07:15.549Z,1.84
2023-02-16T05:09:43.063Z,-0.02
2023-02-16T05:12:33.297Z,-2.08
2023-02-16T05:15:00.548Z,-3.36
2023-02-16T05:17:28.313Z,-0.35
2023-02-16T05:19:59.642Z,-1.55
2023-02-16T05:22:29.114Z,-0.07
2023-02-16T05:24:56.347Z,1.91
2023-02-16T05:27:28.852Z,-1.08
2023-02-16T05:29:59.543Z,-3.50
2023-02-16T05:32:29.857Z,-3.35
2023-02-16T05:34:57.038Z,-1.27
2023-02-16T05:37:26.333Z,-0.19
2023-02-16T05:39:54.821Z,-2.47
2023-02-16T05:42:34.255Z,1.54
2023-02-16T05:45:22.953Z,-1.29
2023-02-16T05:47:56.319Z,-2.21
2023-02-16T05:50:28.371Z,-3.40
2023-02-16T05:53:08.825Z,1.76
2023-02-16T05:55:59.022Z,-1.63
2023-02-16T05:58:28.916Z,-2.64
2023-02-16T06:00:56.005Z,-2.79
2023-02-16T06:03:24.585Z,-2.04
2023-02-16T06:05:56.820Z,1.69
2023-02-16T06:08:24.424Z,-3.60
2023-02-16T06:10:53.431Z,-3.22
2023-02-16T06:13:21.805Z,-3.94
2023-02-16T06:15:53.712Z,-0.87
2023-02-16T06:18:24.085Z,-2.75
2023-02-16T06:20:51.562Z,-3.45
2023-02-16T06:23:33.157Z,1.85
2023-02-16T06:26:00.310Z,-2.55
2023-02-16T06:28:30.526Z,-2.72
2023-02-16T06:31:00.474Z,-1.15
2023-02-16T06:33:32.553Z,0.68
2023-02-16T06:35:59.318Z,2.06
2023-02-16T06:38:26.050Z,1.39
2023-02-16T06:40:55.837Z,0.85
2023-02-16T06:43:22.759Z,2.19
2023-02-16T06:45:52.438Z,2.07
2023-02-16T06:48:23.847Z,1.67
2023-02-16T06:50:51.040Z,2.27
2023-02-16T06:53:18.375Z,1.53
2023-02-16T06:55:45.252Z,1.78
2023-02-16T06:58:14.566Z,1.35
2023-02-16T07:00:41.604Z,2.24
2023-02-16T07:03:08.451Z,2.45
2023-02-16T07:05:38.146Z,1.22
2023-02-16T07:08:04.954Z,1.91
2023-02-16T07:10:47.380Z,2.55
2023-02-16T07:13:15.621Z,2.15
2023-02-16T07:15:42.429Z,1.22
2023-02-16T07:18:09.355Z,2.32
2023-02-16T07:20:36.292Z,2.53
2023-02-16T07:23:03.167Z,1.71
2023-02-16T07:25:30.111Z,2.71
2023-02-16T07:27:56.970Z,2.15
2023-02-16T07:30:28.402Z,2.91
2023-02-16T07:32:55.257Z,3.06
2023-02-16T07:35:25.502Z,2.58
2023-02-16T07:37:52.676Z,2.57
2023-02-16T07:40:22.309Z,2.40
2023-02-16T07:42:51.277Z,3.20
2023-02-16T07:45:18.162Z,2.76
2023-02-16T07:47:47.629Z,3.05
2023-02-16T07:50:14.471Z,2.68
2023-02-16T07:52:43.546Z,2.32
2023-02-16T07:55:11.523Z,2.57
2023-02-16T07:57:39.343Z,2.46
2023-02-16T08:00:07.820Z,3.18
2023-02-16T08:02:41.327Z,2.29
2023-02-16T08:05:08.554Z,3.07
2023-02-16T08:07:42.612Z,3.49
2023-02-16T08:10:09.821Z,3.44
2023-02-16T08:12:39.203Z,3.30
2023-02-16T08:15:06.510Z,3.26
2023-02-16T08:17:38.256Z,3.51
2023-02-16T08:20:10.063Z,3.73
2023-02-16T08:22:37.655Z,3.75
2023-02-16T08:25:07.168Z,3.69
2023-02-16T08:27:33.929Z,4.08
2023-02-16T08:30:06.068Z,3.50
2023-02-16T08:32:35.969Z,3.62
2023-02-16T08:35:05.165Z,3.68
2023-02-16T08:37:31.881Z,4.22
2023-02-16T08:40:04.676Z,3.52
2023-02-16T08:42:33.794Z,3.53
2023-02-16T08:45:00.556Z,4.05
2023-02-16T08:47:27.383Z,4.21
2023-02-16T08:50:15.286Z,3.99
2023-02-16T08:52:47.635Z,2.47
2023-02-16T08:55:17.491Z,4.16
2023-02-16T08:57:44.284Z,4.76
2023-02-16T09:00:30.139Z,4.74
2023-02-16T09:02:59.163Z,4.59
2023-02-16T09:05:31.160Z,4.66
2023-02-16T09:08:00.419Z,4.97
2023-02-16T09:10:34.964Z,4.91
2023-02-16T09:13:07.009Z,4.63
2023-02-16T09:15:33.866Z,4.98
2023-02-16T09:18:00.888Z,5.08
2023-02-16T09:20:27.713Z,5.11
2023-02-16T09:22:57.227Z,5.66
2023-02-16T09:25:26.196Z,5.99
2023-02-16T09:27:53.144Z,5.52
2023-02-16T09:30:22.756Z,5.94
2023-02-16T09:32:49.624Z,6.14
2023-02-16T09:35:17.672Z,6.20
2023-02-16T09:37:47.337Z,6.43
2023-02-16T09:40:16.986Z,6.27
2023-02-16T09:43:00.451Z,7.06
2023-02-16T09:45:27.566Z,6.37
2023-02-16T09:47:59.492Z,6.23
2023-02-16T09:50:52.968Z,6.34
2023-02-16T09:53:39.699Z,7.35
2023-02-16T09:56:18.724Z,7.58
2023-02-16T09:58:49.890Z,7.19
2023-02-16T10:01:17.864Z,7.83
2023-02-16T10:04:25.677Z,7.18
2023-02-16T10:07:01.907Z,8.11
2023-02-16T10:09:31.771Z,8.10
2023-02-16T10:12:09.966Z,7.70
2023-02-16T10:14:55.827Z,8.12
2023-02-16T10:17:39.440Z,8.28
2023-02-16T10:20:39.790Z,8.71
2023-02-16T10:23:43.476Z,8.95
2023-02-16T10:26:34.460Z,9.33
2023-02-16T10:29:08.921Z,9.52
2023-02-16T10:32:14.941Z,9.87
2023-02-16T10:34:50.404Z,9.63
2023-02-16T10:37:54.131Z,10.49
2023-02-16T10:40:30.792Z,10.60
2023-02-16T10:43:14.359Z,9.98
2023-02-16T10:46:05.994Z,11.21
2023-02-16T10:48:35.572Z,11.12
2023-02-16T10:51:12.036Z,10.76
2023-02-16T10:53:43.254Z,11.81
2023-02-16T10:56:41.611Z,11.41
2023-02-16T10:59:16.537Z,11.96
2023-02-16T11:01:50.234Z,12.00
2023-02-16T11:04:38.029Z,11.80
2023-02-16T11:07:18.506Z,11.54
2023-02-16T11:09:58.234Z,11.21
2023-02-16T11:12:37.557Z,11.38
2023-02-16T11:15:15.689Z,12.02
2023-02-16T11:18:05.632Z,11.86
2023-02-16T11:20:46.649Z,11.70
2023-02-16T11:23:35.263Z,12.11
2023-02-16T11:26:14.747Z,12.24
2023-02-16T11:28:47.993Z,12.29
2023-02-16T11:31:42.420Z,12.27
2023-02-16T11:34:30.474Z,12.37
2023-02-16T11:37:13.675Z,12.25
2023-02-16T11:39:52.813Z,12.68
2023-02-16T11:43:00.197Z,12.90
2023-02-16T11:45:35.255Z,12.71
2023-02-16T11:48:27.925Z,12.82
2023-02-16T11:50:58.359Z,13.83
2023-02-16T11:53:33.756Z,14.23
2023-02-16T11:56:29.220Z,13.96
2023-02-16T11:59:22.841Z,13.99
2023-02-16T12:02:07.854Z,14.12
2023-02-16T12:05:17.655Z,13.64
2023-02-16T12:08:09.962Z,14.29
2023-02-16T12:11:10.673Z,13.85
2023-02-16T12:14:14.965Z,14.28
2023-02-16T12:17:06.215Z,14.29
2023-02-16T12:20:17.893Z,14.56
2023-02-16T12:22:49.446Z,15.10
2023-02-16T12:26:06.856Z,15.81
2023-02-16T12:29:07.248Z,15.47
2023-02-16T12:31:42.976Z,16.91
2023-02-16T12:34:50.456Z,17.44
2023-02-16T12:37:36.091Z,17.92
2023-02-16T12:40:41.217Z,17.98
2023-02-16T12:43:34.232Z,18.08
2023-02-16T12:46:19.924Z,16.57
2023-02-16T12:48:52.162Z,17.56
2023-02-16T12:51:22.639Z,18.45
2023-02-16T12:54:10.367Z,18.08
2023-02-16T12:56:50.303Z,17.62
2023-02-16T12:59:56.822Z,17.56
2023-02-16T13:02:37.016Z,17.03
2023-02-16T13:05:16.988Z,16.34
2023-02-16T13:07:49.025Z,16.97
2023-02-16T13:10:36.878Z,17.09
2023-02-16T13:13:12.990Z,16.99
2023-02-16T13:15:45.320Z,16.79
2023-02-16T13:18:15.461Z,16.84
2023-02-16T13:20:50.085Z,16.66
2023-02-16T13:23:43.858Z,16.91
2023-02-16T13:26:26.515Z,17.05
2023-02-16T13:29:33.193Z,16.32
2023-02-16T13:32:36.379Z,17.51
2023-02-16T13:35:16.466Z,17.44
2023-02-16T13:37:58.407Z,16.67
2023-02-16T13:40:35.140Z,17.82
2023-02-16T13:43:16.655Z,17.49
2023-02-16T13:45:49.090Z,18.31
2023-02-16T13:48:30.107Z,18.03
2023-02-16T13:51:05.805Z,17.44
2023-02-16T13:53:38.665Z,18.04
2023-02-16T13:56:24.357Z,18.04
2023-02-16T13:58:53.039Z,18.65
2023-02-16T14:01:32.187Z,18.60
2023-02-16T14:05:37.745Z,18.37
2023-02-16T14:16:12.982Z,19.11
2023-02-16T14:19:18.461Z,18.92
2023-02-16T14:21:54.295Z,14.03
2023-02-16T14:24:39.159Z,13.69
2023-02-16T14:27:09.782Z,15.40
2023-02-16T14:30:00.602Z,16.94
2023-02-16T14:32:38.696Z,14.70
2023-02-16T14:35:32.433Z,15.36
2023-02-16T14:38:19.123Z,16.99
2023-02-16T14:40:58.414Z,14.64
2023-02-16T14:43:35.618Z,16.28
2023-02-16T14:46:18.373Z,19.37
2023-02-16T14:49:18.648Z,19.35
2023-02-16T14:51:55.932Z,19.59
2023-02-16T14:54:44.899Z,19.69
2023-02-16T14:57:52.907Z,18.24
2023-02-16T15:00:46.311Z,18.79
2023-02-16T15:03:32.422Z,12.81
2023-02-16T15:06:05.082Z,13.33
2023-02-16T15:08:37.002Z,12.38
2023-02-16T15:11:22.161Z,17.13
2023-02-16T15:13:56.673Z,12.18
2023-02-16T15:16:29.829Z,16.42
2023-02-16T15:19:05.110Z,15.94
2023-02-16T15:21:35.093Z,11.51
2023-02-16T15:24:27.323Z,12.19
2023-02-16T15:27:01.776Z,12.77
2023-02-16T15:29:34.804Z,14.52
2023-02-16T15:32:14.613Z,10.39
2023-02-16T15:34:44.837Z,10.09
2023-02-16T15:37:43.668Z,9.71
2023-02-16T15:40:38.339Z,12.41
2023-02-16T15:43:35.683Z,14.15
2023-02-16T15:46:35.874Z,11.06
2023-02-16T15:49:22.797Z,13.73
2023-02-16T15:51:52.844Z,9.00
2023-02-16T15:54:32.276Z,13.37
2023-02-16T15:57:19.518Z,8.59
2023-02-16T15:59:55.902Z,11.28
2023-02-16T16:02:41.247Z,12.74
2023-02-16T16:05:30.152Z,7.51
2023-02-16T16:07:59.530Z,7.15
2023-02-16T16:10:42.276Z,7.79
2023-02-16T16:13:28.217Z,7.40
2023-02-16T16:16:02.122Z,6.85
2023-02-16T16:18:44.706Z,9.68
2023-02-16T16:21:25.314Z,6.52
2023-02-16T16:24:03.285Z,6.97
2023-02-16T16:26:39.033Z,6.20
2023-02-16T16:29:39.361Z,10.97
2023-02-16T16:32:31.397Z,5.74
2023-02-16T16:38:10.779Z,6.04
2023-02-16T16:40:42.532Z,5.38
2023-02-16T16:43:23.552Z,5.55
2023-02-16T16:46:11.754Z,6.29
2023-02-16T16:49:06.414Z,8.38
2023-02-16T16:51:43.726Z,4.98
2023-02-16T16:54:39.053Z,5.96
2023-02-16T16:57:17.711Z,5.40
2023-02-16T16:59:50.604Z,4.78
2023-02-16T17:02:24.699Z,4.55
2023-02-16T17:05:10.602Z,8.24
2023-02-16T17:07:41.602Z,8.47
2023-02-16T17:10:11.858Z,6.15
2023-02-16T17:15:57.374Z,9.74
2023-02-16T17:18:27.587Z,4.33
2023-02-16T17:25:30.968Z,6.07
2023-02-16T17:27:58.889Z,4.81
2023-02-16T17:30:35.518Z,5.69
2023-02-16T17:33:08.488Z,3.95
2023-02-16T17:35:37.693Z,7.62
2023-02-16T17:38:18.808Z,4.22
2023-02-16T17:40:55.247Z,5.10
2023-02-16T17:43:30.685Z,5.28
2023-02-16T17:46:01.218Z,3.49
2023-02-16T17:48:31.542Z,3.63
2023-02-16T17:51:09.404Z,4.87
2023-02-16T17:53:52.072Z,5.36
2023-02-16T17:56:23.439Z,3.53
2023-02-16T17:58:55.644Z,5.24
2023-02-16T18:01:22.824Z,3.62
2023-02-16T18:03:50.357Z,4.69
2023-02-16T18:06:18.723Z,6.65
2023-02-16T18:08:57.308Z,3.60
2023-02-16T18:11:27.334Z,3.43
2023-02-16T18:14:04.788Z,4.36
2023-02-16T18:16:34.327Z,6.79
2023-02-16T18:19:11.614Z,2.33
2023-02-16T18:21:43.401Z,4.35
2023-02-16T18:24:15.063Z,4.85
2023-02-16T18:26:45.200Z,8.33
2023-02-16T18:29:23.711Z,4.07
2023-02-16T18:31:58.359Z,3.47
2023-02-16T18:34:30.664Z,4.84
2023-02-16T18:37:08.836Z,2.78
2023-02-16T18:40:05.284Z,3.83
2023-02-16T18:42:42.545Z,4.37
2023-02-16T18:45:10.613Z,3.05
2023-02-16T18:47:42.782Z,3.64
2023-02-16T18:50:22.755Z,3.84
2023-02-16T18:52:52.466Z,3.04
2023-02-16T18:55:35.339Z,5.94
2023-02-16T18:58:11.370Z,2.66
2023-02-16T19:00:40.976Z,3.81
2023-02-16T19:03:18.063Z,2.98
2023-02-16T19:05:48.149Z,5.43
2023-02-16T19:08:17.775Z,6.37
2023-02-16T19:10:45.139Z,7.52
2023-02-16T19:13:15.405Z,2.70
2023-02-16T19:15:44.859Z,4.24
2023-02-16T19:18:27.640Z,7.68
2023-02-16T19:21:00.816Z,3.34
2023-02-16T19:23:27.955Z,4.34
2023-02-16T19:25:56.321Z,5.82
2023-02-16T19:28:26.700Z,7.24
2023-02-16T19:30:56.984Z,7.00
2023-02-16T19:33:29.719Z,4.86
2023-02-16T19:36:09.055Z,3.32
2023-02-16T19:38:36.797Z,3.16
2023-02-16T19:41:21.711Z,2.70
2023-02-16T19:43:49.304Z,2.99
2023-02-16T19:46:20.087Z,2.19
2023-02-16T19:48:56.104Z,3.00
2023-02-16T19:51:34.660Z,2.15
2023-02-16T19:54:04.756Z,3.12
2023-02-16T19:56:41.092Z,2.48
2023-02-16T19:59:16.582Z,2.66
2023-02-16T20:01:50.007Z,3.32
2023-02-16T20:04:17.403Z,1.73
2023-02-16T20:06:47.854Z,2.19
2023-02-16T20:09:17.685Z,4.17
2023-02-16T20:11:49.302Z,2.11
2023-02-16T20:14:20.693Z,6.20
2023-02-16T20:16:54.143Z,2.44
2023-02-16T20:19:23.987Z,1.68
2023-02-16T20:21:53.906Z,1.60
2023-02-16T20:24:26.989Z,2.45
2023-02-16T20:26:59.927Z,2.38
2023-02-16T20:29:41.383Z,5.82
2023-02-16T20:32:24.007Z,3.70
2023-02-16T20:34:58.417Z,1.84
2023-02-16T20:37:36.004Z,1.46
2023-02-16T20:40:17.312Z,2.71
2023-02-16T20:42:57.560Z,0.89
2023-02-16T20:45:29.499Z,2.64
2023-02-16T20:48:02.646Z,1.93
2023-02-16T20:50:39.678Z,2.47
2023-02-16T20:53:12.181Z,2.28
2023-02-16T20:55:47.175Z,1.48
2023-02-16T20:58:24.462Z,6.36
2023-02-16T21:00:59.402Z,1.51
2023-02-16T21:03:31.500Z,1.50
2023-02-16T21:06:07.152Z,1.74
2023-02-16T21:08:34.621Z,3.04
2023-02-16T21:11:13.801Z,1.29
2023-02-16T21:13:43.565Z,3.36
2023-02-16T21:16:16.732Z,0.89
2023-02-16T21:18:48.537Z,1.52
2023-02-16T21:21:18.922Z,1.37
2023-02-16T21:23:56.318Z,1.44
2023-02-16T21:26:35.293Z,1.59
2023-02-16T21:29:07.383Z,1.55
2023-02-16T21:31:43.829Z,1.21
2023-02-16T21:34:24.169Z,1.15
2023-02-16T21:37:03.705Z,4.73
2023-02-16T21:39:59.530Z,0.93
2023-02-16T21:42:43.679Z,1.51
2023-02-16T21:45:25.623Z,1.56
2023-02-16T21:48:16.305Z,2.04
2023-02-16T21:50:46.428Z,6.10
2023-02-16T21:53:19.936Z,4.65
2023-02-16T21:56:06.073Z,0.38
2023-02-16T21:58:39.382Z,2.82
2023-02-16T22:01:21.940Z,1.36
2023-02-16T22:04:01.591Z,4.52
2023-02-16T22:06:45.111Z,0.76
2023-02-16T22:09:23.719Z,1.75
2023-02-16T22:12:03.358Z,1.84
2023-02-16T22:14:34.259Z,1.97
2023-02-16T22:17:12.121Z,1.49
2023-02-16T22:19:50.045Z,1.50
2023-02-16T22:22:40.033Z,1.13
2023-02-16T22:25:08.426Z,2.82
2023-02-16T22:27:44.874Z,1.99
2023-02-16T22:30:17.818Z,1.14
2023-02-16T22:32:51.490Z,5.43
2023-02-16T22:35:20.561Z,5.92
2023-02-16T22:37:47.313Z,5.48
2023-02-16T22:40:20.041Z,4.98
2023-02-16T22:42:49.246Z,5.40
2023-02-16T22:45:16.033Z,5.42
2023-02-16T22:47:43.101Z,5.43
2023-02-16T22:50:15.180Z,5.17
2023-02-16T22:52:44.681Z,5.38
2023-02-16T22:55:16.973Z,5.07
2023-02-16T22:57:43.775Z,5.04
2023-02-16T23:00:16.152Z,4.96
2023-02-16T23:02:45.914Z,5.16
2023-02-16T23:05:15.025Z,5.24
2023-02-16T23:07:41.720Z,5.24
2023-02-16T23:10:08.731Z,5.29
2023-02-16T23:12:39.792Z,4.67
2023-02-16T23:15:11.443Z,5.27
2023-02-16T23:17:40.925Z,4.84
2023-02-16T23:20:12.510Z,5.31
2023-02-16T23:22:39.895Z,4.80
2023-02-16T23:25:26.002Z,5.32
2023-02-16T23:27:53.674Z,5.28
2023-02-16T23:30:24.218Z,4.42
2023-02-16T23:32:51.083Z,4.97
2023-02-16T23:35:20.317Z,5.05
2023-02-16T23:37:47.008Z,4.55
2023-02-16T23:40:17.706Z,4.93
2023-02-16T23:42:44.835Z,4.74
2023-02-16T23:45:14.098Z,4.98
2023-02-16T23:47:46.484Z,4.77
2023-02-16T23:50:13.291Z,4.83
2023-02-16T23:52:40.887Z,5.24
2023-02-16T23:55:08.506Z,4.51
2023-02-16T23:57:38.120Z,5.27
